Terminal Aerodrome Forecast
Issued by NWS Albuquerque, NM

Home | Current Version | Previous Version | Text Only | Print | Product List | Glossary On
Versions: 1 2 3 4 5 6 7 8 9 10 11 12 13 14 15 16 17 18 19
000
FTUS45 KABQ 220636 AAA
TAFABQ
TAF AMD
KABQ 220636Z 2207/2306 35008KT P6SM VCTS SCT060CB BKN100
      TEMPO 2207/2209 VRB15G25KT
     FM221000 02006KT P6SM BKN120
     FM222100 09011KT P6SM VCSH BKN100
     FM230200 09020G30KT P6SM VCSH FEW040 BKN100=

USA.gov is the U.S. government's official web portal to all federal, state and local government web resources and services.